sensor_id;sensor_type;location;lat;lon;timestamp;P1;durP1;ratioP1;P2;durP2;ratioP2
47796;SDS011;33558;50.922;14.068;2022-07-06T00:00:29;10.73;;;3.67;;
47796;SDS011;33558;50.922;14.068;2022-07-06T00:02:56;4.80;;;3.30;;
47796;SDS011;33558;50.922;14.068;2022-07-06T00:05:22;11.65;;;4.50;;
47796;SDS011;33558;50.922;14.068;2022-07-06T00:07:49;14.88;;;4.82;;
47796;SDS011;33558;50.922;14.068;2022-07-06T00:10:16;6.93;;;4.13;;
47796;SDS011;33558;50.922;14.068;2022-07-06T00:12:44;4.47;;;3.53;;
47796;SDS011;33558;50.922;14.068;2022-07-06T00:15:10;5.80;;;3.90;;
47796;SDS011;33558;50.922;14.068;2022-07-06T00:17:37;8.27;;;4.05;;
47796;SDS011;33558;50.922;14.068;2022-07-06T00:20:04;11.20;;;4.50;;
47796;SDS011;33558;50.922;14.068;2022-07-06T00:22:31;7.65;;;5.30;;
47796;SDS011;33558;50.922;14.068;2022-07-06T00:24:58;7.60;;;5.75;;
47796;SDS011;33558;50.922;14.068;2022-07-06T00:27:24;6.38;;;5.60;;
47796;SDS011;33558;50.922;14.068;2022-07-06T00:30:21;6.07;;;4.97;;
47796;SDS011;33558;50.922;14.068;2022-07-06T00:32:47;7.15;;;4.95;;
47796;SDS011;33558;50.922;14.068;2022-07-06T00:35:14;8.27;;;5.35;;
47796;SDS011;33558;50.922;14.068;2022-07-06T00:37:40;5.75;;;5.25;;
47796;SDS011;33558;50.922;14.068;2022-07-06T00:40:07;7.85;;;4.82;;
47796;SDS011;33558;50.922;14.068;2022-07-06T00:42:41;5.93;;;4.90;;
47796;SDS011;33558;50.922;14.068;2022-07-06T00:45:10;6.90;;;4.63;;
47796;SDS011;33558;50.922;14.068;2022-07-06T00:47:38;5.03;;;4.47;;
47796;SDS011;33558;50.922;14.068;2022-07-06T00:50:07;5.40;;;4.38;;
47796;SDS011;33558;50.922;14.068;2022-07-06T00:52:41;7.15;;;4.93;;
47796;SDS011;33558;50.922;14.068;2022-07-06T00:55:08;4.97;;;4.45;;
47796;SDS011;33558;50.922;14.068;2022-07-06T00:57:35;7.45;;;4.90;;
47796;SDS011;33558;50.922;14.068;2022-07-06T01:00:27;5.38;;;4.47;;
47796;SDS011;33558;50.922;14.068;2022-07-06T01:02:56;5.50;;;4.38;;
47796;SDS011;33558;50.922;14.068;2022-07-06T01:05:22;7.05;;;5.50;;
47796;SDS011;33558;50.922;14.068;2022-07-06T01:07:50;6.32;;;4.60;;
47796;SDS011;33558;50.922;14.068;2022-07-06T01:10:18;7.20;;;5.07;;
47796;SDS011;33558;50.922;14.068;2022-07-06T01:12:46;5.00;;;4.50;;
47796;SDS011;33558;50.922;14.068;2022-07-06T01:15:14;6.13;;;5.03;;
47796;SDS011;33558;50.922;14.068;2022-07-06T01:17:43;8.82;;;5.38;;
47796;SDS011;33558;50.922;14.068;2022-07-06T01:20:12;7.57;;;5.43;;
47796;SDS011;33558;50.922;14.068;2022-07-06T01:22:39;7.15;;;4.95;;
47796;SDS011;33558;50.922;14.068;2022-07-06T01:25:06;6.57;;;4.90;;
47796;SDS011;33558;50.922;14.068;2022-07-06T01:27:34;5.88;;;4.90;;
47796;SDS011;33558;50.922;14.068;2022-07-06T01:30:27;6.13;;;5.03;;
47796;SDS011;33558;50.922;14.068;2022-07-06T01:32:54;6.38;;;5.57;;
47796;SDS011;33558;50.922;14.068;2022-07-06T01:35:22;5.82;;;5.22;;
47796;SDS011;33558;50.922;14.068;2022-07-06T01:37:50;6.15;;;5.30;;
47796;SDS011;33558;50.922;14.068;2022-07-06T01:40:17;6.47;;;5.10;;
47796;SDS011;33558;50.922;14.068;2022-07-06T01:42:43;5.50;;;4.78;;
47796;SDS011;33558;50.922;14.068;2022-07-06T01:45:12;7.15;;;5.95;;
47796;SDS011;33558;50.922;14.068;2022-07-06T01:47:40;7.57;;;5.75;;
47796;SDS011;33558;50.922;14.068;2022-07-06T01:50:07;7.28;;;5.43;;
47796;SDS011;33558;50.922;14.068;2022-07-06T01:52:41;6.45;;;5.15;;
47796;SDS011;33558;50.922;14.068;2022-07-06T01:55:08;5.28;;;4.57;;
47796;SDS011;33558;50.922;14.068;2022-07-06T01:57:36;7.40;;;4.80;;
47796;SDS011;33558;50.922;14.068;2022-07-06T02:00:28;8.18;;;5.43;;
47796;SDS011;33558;50.922;14.068;2022-07-06T02:02:55;7.68;;;5.82;;
47796;SDS011;33558;50.922;14.068;2022-07-06T02:05:21;7.55;;;5.63;;
47796;SDS011;33558;50.922;14.068;2022-07-06T02:07:49;55.97;;;13.35;;
47796;SDS011;33558;50.922;14.068;2022-07-06T02:10:16;5.80;;;5.18;;
47796;SDS011;33558;50.922;14.068;2022-07-06T02:12:43;7.72;;;5.13;;
47796;SDS011;33558;50.922;14.068;2022-07-06T02:15:10;6.97;;;4.72;;
47796;SDS011;33558;50.922;14.068;2022-07-06T02:17:38;6.78;;;4.55;;
47796;SDS011;33558;50.922;14.068;2022-07-06T02:20:04;6.10;;;4.80;;
47796;SDS011;33558;50.922;14.068;2022-07-06T02:22:32;6.80;;;4.78;;
47796;SDS011;33558;50.922;14.068;2022-07-06T02:25:01;6.70;;;4.72;;
47796;SDS011;33558;50.922;14.068;2022-07-06T02:27:29;5.25;;;4.72;;
47796;SDS011;33558;50.922;14.068;2022-07-06T02:30:21;5.28;;;4.78;;
47796;SDS011;33558;50.922;14.068;2022-07-06T02:32:48;5.05;;;4.20;;
47796;SDS011;33558;50.922;14.068;2022-07-06T02:35:15;6.20;;;4.15;;
47796;SDS011;33558;50.922;14.068;2022-07-06T02:37:42;5.53;;;4.35;;
47796;SDS011;33558;50.922;14.068;2022-07-06T02:40:11;10.20;;;5.65;;
47796;SDS011;33558;50.922;14.068;2022-07-06T02:42:38;7.47;;;4.35;;
47796;SDS011;33558;50.922;14.068;2022-07-06T02:45:11;8.60;;;4.90;;
47796;SDS011;33558;50.922;14.068;2022-07-06T02:47:37;5.57;;;4.50;;
47796;SDS011;33558;50.922;14.068;2022-07-06T02:50:04;6.38;;;4.72;;
47796;SDS011;33558;50.922;14.068;2022-07-06T02:52:32;7.13;;;4.40;;
47796;SDS011;33558;50.922;14.068;2022-07-06T02:55:00;5.93;;;3.75;;
47796;SDS011;33558;50.922;14.068;2022-07-06T02:57:28;5.65;;;4.38;;
47796;SDS011;33558;50.922;14.068;2022-07-06T03:00:20;5.20;;;4.07;;
47796;SDS011;33558;50.922;14.068;2022-07-06T03:02:47;5.72;;;3.75;;
47796;SDS011;33558;50.922;14.068;2022-07-06T03:05:14;4.70;;;4.20;;
47796;SDS011;33558;50.922;14.068;2022-07-06T03:07:40;5.43;;;4.18;;
47796;SDS011;33558;50.922;14.068;2022-07-06T03:10:07;5.18;;;4.20;;
47796;SDS011;33558;50.922;14.068;2022-07-06T03:12:37;6.25;;;4.25;;
47796;SDS011;33558;50.922;14.068;2022-07-06T03:15:10;6.63;;;4.15;;
47796;SDS011;33558;50.922;14.068;2022-07-06T03:23:39;4.40;;;4.00;;
47796;SDS011;33558;50.922;14.068;2022-07-06T03:26:06;5.47;;;3.45;;
47796;SDS011;33558;50.922;14.068;2022-07-06T03:28:34;3.50;;;3.20;;
47796;SDS011;33558;50.922;14.068;2022-07-06T03:31:01;5.25;;;3.90;;
47796;SDS011;33558;50.922;14.068;2022-07-06T03:33:28;4.47;;;3.90;;
47796;SDS011;33558;50.922;14.068;2022-07-06T03:35:54;4.45;;;4.05;;
47796;SDS011;33558;50.922;14.068;2022-07-06T03:38:21;5.22;;;4.72;;
47796;SDS011;33558;50.922;14.068;2022-07-06T03:40:48;7.53;;;5.47;;
47796;SDS011;33558;50.922;14.068;2022-07-06T03:43:14;7.43;;;5.60;;
47796;SDS011;33558;50.922;14.068;2022-07-06T03:45:43;6.07;;;5.40;;
47796;SDS011;33558;50.922;14.068;2022-07-06T03:48:10;8.40;;;6.05;;
47796;SDS011;33558;50.922;14.068;2022-07-06T03:50:39;6.47;;;5.88;;
47796;SDS011;33558;50.922;14.068;2022-07-06T03:53:06;9.18;;;6.15;;
47796;SDS011;33558;50.922;14.068;2022-07-06T03:55:34;7.63;;;6.25;;
47796;SDS011;33558;50.922;14.068;2022-07-06T03:58:05;7.30;;;6.15;;
47796;SDS011;33558;50.922;14.068;2022-07-06T04:00:32;6.80;;;6.07;;
47796;SDS011;33558;50.922;14.068;2022-07-06T04:03:04;9.98;;;6.55;;
47796;SDS011;33558;50.922;14.068;2022-07-06T04:05:37;6.57;;;5.60;;
47796;SDS011;33558;50.922;14.068;2022-07-06T04:08:04;8.50;;;5.72;;
47796;SDS011;33558;50.922;14.068;2022-07-06T04:10:37;7.18;;;5.70;;
47796;SDS011;33558;50.922;14.068;2022-07-06T04:13:03;6.78;;;5.10;;
47796;SDS011;33558;50.922;14.068;2022-07-06T04:15:30;5.68;;;5.13;;
47796;SDS011;33558;50.922;14.068;2022-07-06T04:17:58;5.85;;;5.25;;
47796;SDS011;33558;50.922;14.068;2022-07-06T04:20:38;6.15;;;5.10;;
47796;SDS011;33558;50.922;14.068;2022-07-06T04:23:05;6.95;;;5.22;;
47796;SDS011;33558;50.922;14.068;2022-07-06T04:25:32;8.07;;;6.00;;
47796;SDS011;33558;50.922;14.068;2022-07-06T04:28:01;6.82;;;6.22;;
47796;SDS011;33558;50.922;14.068;2022-07-06T04:30:29;6.65;;;5.40;;
47796;SDS011;33558;50.922;14.068;2022-07-06T04:32:56;6.03;;;5.43;;
47796;SDS011;33558;50.922;14.068;2022-07-06T04:35:26;5.85;;;5.25;;
47796;SDS011;33558;50.922;14.068;2022-07-06T04:37:55;6.22;;;4.88;;
47796;SDS011;33558;50.922;14.068;2022-07-06T04:40:22;5.93;;;5.13;;
47796;SDS011;33558;50.922;14.068;2022-07-06T04:42:52;5.38;;;4.75;;
47796;SDS011;33558;50.922;14.068;2022-07-06T04:45:20;5.88;;;4.78;;
47796;SDS011;33558;50.922;14.068;2022-07-06T04:47:47;6.50;;;4.85;;
47796;SDS011;33558;50.922;14.068;2022-07-06T04:50:14;5.18;;;4.68;;
47796;SDS011;33558;50.922;14.068;2022-07-06T04:52:42;6.95;;;5.07;;
47796;SDS011;33558;50.922;14.068;2022-07-06T04:55:10;6.93;;;5.43;;
47796;SDS011;33558;50.922;14.068;2022-07-06T04:57:39;5.05;;;4.40;;
47796;SDS011;33558;50.922;14.068;2022-07-06T05:00:13;4.55;;;4.15;;
47796;SDS011;33558;50.922;14.068;2022-07-06T05:02:41;4.80;;;4.30;;
47796;SDS011;33558;50.922;14.068;2022-07-06T05:05:09;6.18;;;4.63;;
47796;SDS011;33558;50.922;14.068;2022-07-06T05:07:37;4.75;;;4.25;;
47796;SDS011;33558;50.922;14.068;2022-07-06T05:10:05;5.40;;;4.90;;
47796;SDS011;33558;50.922;14.068;2022-07-06T05:12:35;5.07;;;4.57;;
47796;SDS011;33558;50.922;14.068;2022-07-06T05:15:27;4.93;;;4.50;;
47796;SDS011;33558;50.922;14.068;2022-07-06T05:17:56;15.57;;;5.47;;
47796;SDS011;33558;50.922;14.068;2022-07-06T05:20:24;7.00;;;4.72;;
47796;SDS011;33558;50.922;14.068;2022-07-06T05:22:50;5.03;;;4.50;;
47796;SDS011;33558;50.922;14.068;2022-07-06T05:25:23;5.10;;;4.60;;
47796;SDS011;33558;50.922;14.068;2022-07-06T05:27:51;5.32;;;4.82;;
47796;SDS011;33558;50.922;14.068;2022-07-06T05:30:17;6.78;;;4.88;;
47796;SDS011;33558;50.922;14.068;2022-07-06T05:32:45;6.20;;;5.10;;
47796;SDS011;33558;50.922;14.068;2022-07-06T05:35:12;5.57;;;4.80;;
47796;SDS011;33558;50.922;14.068;2022-07-06T05:37:38;8.27;;;4.38;;
47796;SDS011;33558;50.922;14.068;2022-07-06T05:40:05;5.50;;;5.00;;
47796;SDS011;33558;50.922;14.068;2022-07-06T05:42:33;7.50;;;5.50;;
47796;SDS011;33558;50.922;14.068;2022-07-06T05:45:25;5.32;;;4.82;;
47796;SDS011;33558;50.922;14.068;2022-07-06T05:47:54;8.07;;;4.60;;
47796;SDS011;33558;50.922;14.068;2022-07-06T05:50:38;5.97;;;5.38;;
47796;SDS011;33558;50.922;14.068;2022-07-06T05:53:05;5.32;;;4.78;;
47796;SDS011;33558;50.922;14.068;2022-07-06T05:55:32;6.55;;;5.25;;
47796;SDS011;33558;50.922;14.068;2022-07-06T05:58:01;11.45;;;6.05;;
47796;SDS011;33558;50.922;14.068;2022-07-06T06:00:33;7.07;;;5.55;;
47796;SDS011;33558;50.922;14.068;2022-07-06T06:03:05;6.30;;;5.05;;
47796;SDS011;33558;50.922;14.068;2022-07-06T06:05:32;5.35;;;4.82;;
47796;SDS011;33558;50.922;14.068;2022-07-06T06:08:03;6.97;;;5.43;;
47796;SDS011;33558;50.922;14.068;2022-07-06T06:10:30;8.40;;;6.20;;
47796;SDS011;33558;50.922;14.068;2022-07-06T06:13:00;7.00;;;5.15;;
47796;SDS011;33558;50.922;14.068;2022-07-06T06:15:28;8.20;;;5.45;;
47796;SDS011;33558;50.922;14.068;2022-07-06T06:17:56;5.05;;;3.70;;
47796;SDS011;33558;50.922;14.068;2022-07-06T06:20:22;6.75;;;4.18;;
47796;SDS011;33558;50.922;14.068;2022-07-06T06:22:50;6.45;;;4.22;;
47796;SDS011;33558;50.922;14.068;2022-07-06T06:25:18;6.63;;;3.97;;
47796;SDS011;33558;50.922;14.068;2022-07-06T06:27:47;6.78;;;4.25;;
47796;SDS011;33558;50.922;14.068;2022-07-06T06:30:14;5.82;;;3.60;;
47796;SDS011;33558;50.922;14.068;2022-07-06T06:32:41;5.72;;;3.72;;
47796;SDS011;33558;50.922;14.068;2022-07-06T06:35:09;4.88;;;3.33;;
47796;SDS011;33558;50.922;14.068;2022-07-06T06:37:35;4.35;;;3.42;;
47796;SDS011;33558;50.922;14.068;2022-07-06T06:40:02;5.63;;;4.07;;
47796;SDS011;33558;50.922;14.068;2022-07-06T06:42:30;9.05;;;4.38;;
47796;SDS011;33558;50.922;14.068;2022-07-06T06:45:21;5.22;;;3.75;;
47796;SDS011;33558;50.922;14.068;2022-07-06T06:47:48;7.40;;;3.60;;
47796;SDS011;33558;50.922;14.068;2022-07-06T06:50:16;8.27;;;3.85;;
47796;SDS011;33558;50.922;14.068;2022-07-06T06:52:43;6.32;;;4.07;;
47796;SDS011;33558;50.922;14.068;2022-07-06T06:55:09;4.25;;;3.47;;
47796;SDS011;33558;50.922;14.068;2022-07-06T06:57:36;6.07;;;3.10;;
47796;SDS011;33558;50.922;14.068;2022-07-06T07:00:28;3.97;;;3.00;;
47796;SDS011;33558;50.922;14.068;2022-07-06T07:02:55;9.07;;;3.55;;
47796;SDS011;33558;50.922;14.068;2022-07-06T07:05:23;7.18;;;2.90;;
47796;SDS011;33558;50.922;14.068;2022-07-06T07:07:50;6.35;;;3.05;;
47796;SDS011;33558;50.922;14.068;2022-07-06T07:10:16;8.43;;;3.13;;
47796;SDS011;33558;50.922;14.068;2022-07-06T07:12:44;6.50;;;3.08;;
47796;SDS011;33558;50.922;14.068;2022-07-06T07:15:11;3.70;;;3.25;;
47796;SDS011;33558;50.922;14.068;2022-07-06T07:17:38;4.93;;;2.78;;
47796;SDS011;33558;50.922;14.068;2022-07-06T07:20:05;6.30;;;2.58;;
47796;SDS011;33558;50.922;14.068;2022-07-06T07:22:34;5.40;;;2.65;;
47796;SDS011;33558;50.922;14.068;2022-07-06T07:25:00;6.32;;;2.33;;
47796;SDS011;33558;50.922;14.068;2022-07-06T07:27:27;3.78;;;2.42;;
47796;SDS011;33558;50.922;14.068;2022-07-06T07:30:19;4.78;;;2.70;;
47796;SDS011;33558;50.922;14.068;2022-07-06T07:32:46;5.20;;;1.83;;
47796;SDS011;33558;50.922;14.068;2022-07-06T07:35:12;5.45;;;1.98;;
47796;SDS011;33558;50.922;14.068;2022-07-06T07:37:40;5.07;;;1.90;;
47796;SDS011;33558;50.922;14.068;2022-07-06T07:40:07;4.70;;;2.00;;
47796;SDS011;33558;50.922;14.068;2022-07-06T07:42:34;3.55;;;1.98;;
47796;SDS011;33558;50.922;14.068;2022-07-06T07:45:28;4.78;;;1.90;;
47796;SDS011;33558;50.922;14.068;2022-07-06T07:47:55;3.80;;;1.60;;
47796;SDS011;33558;50.922;14.068;2022-07-06T07:50:22;2.70;;;1.77;;
47796;SDS011;33558;50.922;14.068;2022-07-06T07:52:50;3.05;;;1.88;;
47796;SDS011;33558;50.922;14.068;2022-07-06T07:55:17;6.00;;;2.00;;
47796;SDS011;33558;50.922;14.068;2022-07-06T07:57:43;2.92;;;1.75;;
47796;SDS011;33558;50.922;14.068;2022-07-06T08:00:11;9.05;;;1.90;;
47796;SDS011;33558;50.922;14.068;2022-07-06T08:02:39;3.08;;;1.80;;
47796;SDS011;33558;50.922;14.068;2022-07-06T08:05:06;4.93;;;1.80;;
47796;SDS011;33558;50.922;14.068;2022-07-06T08:07:33;5.28;;;1.52;;
47796;SDS011;33558;50.922;14.068;2022-07-06T08:10:01;3.88;;;2.03;;
47796;SDS011;33558;50.922;14.068;2022-07-06T08:12:27;4.00;;;1.70;;
47796;SDS011;33558;50.922;14.068;2022-07-06T08:15:19;6.07;;;2.10;;
47796;SDS011;33558;50.922;14.068;2022-07-06T08:17:46;2.83;;;1.80;;
47796;SDS011;33558;50.922;14.068;2022-07-06T08:20:12;3.00;;;1.55;;
47796;SDS011;33558;50.922;14.068;2022-07-06T08:22:41;4.22;;;1.80;;
47796;SDS011;33558;50.922;14.068;2022-07-06T08:25:09;6.25;;;1.70;;
47796;SDS011;33558;50.922;14.068;2022-07-06T08:27:36;3.17;;;1.90;;
47796;SDS011;33558;50.922;14.068;2022-07-06T08:30:28;5.38;;;1.73;;
47796;SDS011;33558;50.922;14.068;2022-07-06T08:32:56;3.40;;;1.67;;
47796;SDS011;33558;50.922;14.068;2022-07-06T08:35:23;6.18;;;1.65;;
47796;SDS011;33558;50.922;14.068;2022-07-06T08:37:49;4.32;;;1.60;;
47796;SDS011;33558;50.922;14.068;2022-07-06T08:40:17;3.47;;;1.35;;
47796;SDS011;33558;50.922;14.068;2022-07-06T08:42:44;4.78;;;1.80;;
47796;SDS011;33558;50.922;14.068;2022-07-06T08:45:13;4.20;;;1.38;;
47796;SDS011;33558;50.922;14.068;2022-07-06T08:47:40;3.70;;;1.30;;
47796;SDS011;33558;50.922;14.068;2022-07-06T08:50:08;2.35;;;1.25;;
47796;SDS011;33558;50.922;14.068;2022-07-06T08:52:35;3.60;;;1.65;;
47796;SDS011;33558;50.922;14.068;2022-07-06T08:55:03;3.75;;;1.60;;
47796;SDS011;33558;50.922;14.068;2022-07-06T08:57:32;5.20;;;1.70;;
47796;SDS011;33558;50.922;14.068;2022-07-06T09:00:25;6.22;;;1.75;;
47796;SDS011;33558;50.922;14.068;2022-07-06T09:02:52;2.63;;;1.60;;
47796;SDS011;33558;50.922;14.068;2022-07-06T09:05:22;2.83;;;1.45;;
47796;SDS011;33558;50.922;14.068;2022-07-06T09:07:51;2.85;;;1.58;;
47796;SDS011;33558;50.922;14.068;2022-07-06T09:10:19;3.38;;;1.70;;
47796;SDS011;33558;50.922;14.068;2022-07-06T09:12:48;4.80;;;1.40;;
47796;SDS011;33558;50.922;14.068;2022-07-06T09:15:15;1.63;;;1.25;;
47796;SDS011;33558;50.922;14.068;2022-07-06T09:17:42;3.72;;;1.35;;
47796;SDS011;33558;50.922;14.068;2022-07-06T09:20:09;3.67;;;1.23;;
47796;SDS011;33558;50.922;14.068;2022-07-06T09:22:37;4.57;;;1.40;;
47796;SDS011;33558;50.922;14.068;2022-07-06T09:25:05;2.75;;;1.15;;
47796;SDS011;33558;50.922;14.068;2022-07-06T09:27:36;2.95;;;1.08;;
47796;SDS011;33558;50.922;14.068;2022-07-06T09:30:30;2.13;;;1.05;;
47796;SDS011;33558;50.922;14.068;2022-07-06T09:32:57;2.92;;;1.08;;
47796;SDS011;33558;50.922;14.068;2022-07-06T09:35:25;5.38;;;1.02;;
47796;SDS011;33558;50.922;14.068;2022-07-06T09:37:59;4.03;;;0.80;;
47796;SDS011;33558;50.922;14.068;2022-07-06T09:40:27;2.35;;;1.08;;
47796;SDS011;33558;50.922;14.068;2022-07-06T09:43:06;2.83;;;0.98;;
47796;SDS011;33558;50.922;14.068;2022-07-06T09:45:35;2.45;;;1.02;;
47796;SDS011;33558;50.922;14.068;2022-07-06T09:50:40;3.35;;;1.00;;
47796;SDS011;33558;50.922;14.068;2022-07-06T09:53:08;6.57;;;1.33;;
47796;SDS011;33558;50.922;14.068;2022-07-06T09:55:35;3.45;;;0.80;;
47796;SDS011;33558;50.922;14.068;2022-07-06T09:58:02;7.95;;;1.55;;
47796;SDS011;33558;50.922;14.068;2022-07-06T10:00:29;4.85;;;1.10;;
47796;SDS011;33558;50.922;14.068;2022-07-06T10:02:57;3.90;;;1.13;;
47796;SDS011;33558;50.922;14.068;2022-07-06T10:05:24;1.77;;;1.13;;
47796;SDS011;33558;50.922;14.068;2022-07-06T10:07:55;1.73;;;1.15;;
47796;SDS011;33558;50.922;14.068;2022-07-06T10:10:23;4.03;;;1.35;;
47796;SDS011;33558;50.922;14.068;2022-07-06T10:12:51;6.00;;;1.15;;
47796;SDS011;33558;50.922;14.068;2022-07-06T10:15:21;5.20;;;1.08;;
47796;SDS011;33558;50.922;14.068;2022-07-06T10:17:48;4.05;;;0.93;;
47796;SDS011;33558;50.922;14.068;2022-07-06T10:20:17;2.58;;;1.20;;
47796;SDS011;33558;50.922;14.068;2022-07-06T10:22:45;4.05;;;1.13;;
47796;SDS011;33558;50.922;14.068;2022-07-06T10:25:12;3.70;;;1.50;;
47796;SDS011;33558;50.922;14.068;2022-07-06T10:27:39;2.35;;;0.85;;
47796;SDS011;33558;50.922;14.068;2022-07-06T10:30:12;4.10;;;1.10;;
47796;SDS011;33558;50.922;14.068;2022-07-06T10:32:39;2.30;;;1.00;;
47796;SDS011;33558;50.922;14.068;2022-07-06T10:35:06;5.22;;;1.25;;
47796;SDS011;33558;50.922;14.068;2022-07-06T10:37:34;3.10;;;1.10;;
47796;SDS011;33558;50.922;14.068;2022-07-06T10:40:01;1.67;;;1.00;;
47796;SDS011;33558;50.922;14.068;2022-07-06T10:42:46;4.37;;;1.30;;
47796;SDS011;33558;50.922;14.068;2022-07-06T10:45:20;3.65;;;1.30;;
47796;SDS011;33558;50.922;14.068;2022-07-06T10:47:54;4.68;;;1.20;;
47796;SDS011;33558;50.922;14.068;2022-07-06T10:50:45;3.15;;;1.10;;
47796;SDS011;33558;50.922;14.068;2022-07-06T10:53:14;3.05;;;1.13;;
47796;SDS011;33558;50.922;14.068;2022-07-06T10:55:43;8.20;;;1.50;;
47796;SDS011;33558;50.922;14.068;2022-07-06T10:58:11;2.15;;;0.95;;
47796;SDS011;33558;50.922;14.068;2022-07-06T11:03:34;3.80;;;1.27;;
47796;SDS011;33558;50.922;14.068;2022-07-06T11:06:04;4.13;;;1.30;;
47796;SDS011;33558;50.922;14.068;2022-07-06T11:08:43;3.08;;;1.30;;
47796;SDS011;33558;50.922;14.068;2022-07-06T11:11:14;3.15;;;1.13;;
47796;SDS011;33558;50.922;14.068;2022-07-06T11:13:42;2.60;;;0.80;;
47796;SDS011;33558;50.922;14.068;2022-07-06T11:16:13;4.65;;;1.00;;
47796;SDS011;33558;50.922;14.068;2022-07-06T11:18:40;3.53;;;1.35;;
47796;SDS011;33558;50.922;14.068;2022-07-06T11:21:17;6.13;;;1.17;;
47796;SDS011;33558;50.922;14.068;2022-07-06T11:23:47;3.80;;;1.30;;
47796;SDS011;33558;50.922;14.068;2022-07-06T11:26:15;2.25;;;1.30;;
47796;SDS011;33558;50.922;14.068;2022-07-06T11:28:43;2.58;;;1.23;;
47796;SDS011;33558;50.922;14.068;2022-07-06T11:31:12;4.60;;;1.30;;
47796;SDS011;33558;50.922;14.068;2022-07-06T11:33:38;2.33;;;0.90;;
47796;SDS011;33558;50.922;14.068;2022-07-06T11:36:12;4.32;;;1.05;;
47796;SDS011;33558;50.922;14.068;2022-07-06T11:38:39;3.85;;;1.48;;
47796;SDS011;33558;50.922;14.068;2022-07-06T11:41:07;2.78;;;1.20;;
47796;SDS011;33558;50.922;14.068;2022-07-06T11:43:34;2.50;;;1.00;;
47796;SDS011;33558;50.922;14.068;2022-07-06T11:46:02;4.82;;;1.23;;
47796;SDS011;33558;50.922;14.068;2022-07-06T11:48:29;3.63;;;1.20;;
47796;SDS011;33558;50.922;14.068;2022-07-06T11:50:59;2.90;;;1.33;;
47796;SDS011;33558;50.922;14.068;2022-07-06T11:53:26;3.08;;;1.27;;
47796;SDS011;33558;50.922;14.068;2022-07-06T11:55:52;1.67;;;0.90;;
47796;SDS011;33558;50.922;14.068;2022-07-06T11:58:21;1.60;;;1.00;;
47796;SDS011;33558;50.922;14.068;2022-07-06T12:01:04;3.70;;;1.10;;
47796;SDS011;33558;50.922;14.068;2022-07-06T12:03:31;2.75;;;1.20;;
47796;SDS011;33558;50.922;14.068;2022-07-06T12:06:06;3.22;;;1.20;;
47796;SDS011;33558;50.922;14.068;2022-07-06T12:08:42;3.58;;;1.30;;
47796;SDS011;33558;50.922;14.068;2022-07-06T12:11:09;4.18;;;1.15;;
47796;SDS011;33558;50.922;14.068;2022-07-06T12:13:38;4.28;;;1.00;;
47796;SDS011;33558;50.922;14.068;2022-07-06T12:16:08;1.45;;;0.80;;
47796;SDS011;33558;50.922;14.068;2022-07-06T12:18:36;3.00;;;0.80;;
47796;SDS011;33558;50.922;14.068;2022-07-06T12:21:03;5.45;;;1.10;;
47796;SDS011;33558;50.922;14.068;2022-07-06T12:23:37;6.28;;;1.20;;
47796;SDS011;33558;50.922;14.068;2022-07-06T12:26:05;3.10;;;1.00;;
47796;SDS011;33558;50.922;14.068;2022-07-06T12:28:31;5.97;;;1.33;;
47796;SDS011;33558;50.922;14.068;2022-07-06T12:30:59;2.05;;;1.20;;
47796;SDS011;33558;50.922;14.068;2022-07-06T12:33:26;2.75;;;1.10;;
47796;SDS011;33558;50.922;14.068;2022-07-06T12:35:53;5.30;;;1.38;;
47796;SDS011;33558;50.922;14.068;2022-07-06T12:38:22;3.10;;;1.20;;
47796;SDS011;33558;50.922;14.068;2022-07-06T12:40:50;2.70;;;1.00;;
47796;SDS011;33558;50.922;14.068;2022-07-06T12:48:56;3.50;;;0.90;;
47796;SDS011;33558;50.922;14.068;2022-07-06T12:51:24;2.30;;;1.38;;
47796;SDS011;33558;50.922;14.068;2022-07-06T12:53:50;4.75;;;1.10;;
47796;SDS011;33558;50.922;14.068;2022-07-06T12:56:17;5.28;;;1.25;;
47796;SDS011;33558;50.922;14.068;2022-07-06T12:58:55;4.10;;;1.38;;
47796;SDS011;33558;50.922;14.068;2022-07-06T13:01:22;3.35;;;1.10;;
47796;SDS011;33558;50.922;14.068;2022-07-06T13:03:54;3.72;;;1.40;;
47796;SDS011;33558;50.922;14.068;2022-07-06T13:06:31;4.28;;;1.40;;
47796;SDS011;33558;50.922;14.068;2022-07-06T13:09:00;1.48;;;0.80;;
47796;SDS011;33558;50.922;14.068;2022-07-06T13:11:26;2.67;;;1.15;;
47796;SDS011;33558;50.922;14.068;2022-07-06T13:13:53;4.03;;;1.10;;
47796;SDS011;33558;50.922;14.068;2022-07-06T13:16:19;3.72;;;0.90;;
47796;SDS011;33558;50.922;14.068;2022-07-06T13:18:47;2.72;;;0.88;;
47796;SDS011;33558;50.922;14.068;2022-07-06T13:21:15;3.30;;;1.20;;
47796;SDS011;33558;50.922;14.068;2022-07-06T13:23:42;5.47;;;1.08;;
47796;SDS011;33558;50.922;14.068;2022-07-06T13:26:08;4.00;;;1.42;;
47796;SDS011;33558;50.922;14.068;2022-07-06T13:28:35;5.88;;;1.27;;
47796;SDS011;33558;50.922;14.068;2022-07-06T13:31:02;1.30;;;0.80;;
47796;SDS011;33558;50.922;14.068;2022-07-06T13:33:28;3.55;;;1.10;;
47796;SDS011;33558;50.922;14.068;2022-07-06T13:35:55;3.10;;;0.93;;
47796;SDS011;33558;50.922;14.068;2022-07-06T13:38:23;2.60;;;0.80;;
47796;SDS011;33558;50.922;14.068;2022-07-06T13:40:49;4.47;;;1.50;;
47796;SDS011;33558;50.922;14.068;2022-07-06T13:43:16;6.22;;;1.08;;
47796;SDS011;33558;50.922;14.068;2022-07-06T13:45:42;1.08;;;0.70;;
47796;SDS011;33558;50.922;14.068;2022-07-06T13:48:09;4.10;;;1.00;;
47796;SDS011;33558;50.922;14.068;2022-07-06T13:50:35;3.22;;;0.90;;
47796;SDS011;33558;50.922;14.068;2022-07-06T13:53:02;3.97;;;1.10;;
47796;SDS011;33558;50.922;14.068;2022-07-06T13:55:30;1.75;;;0.77;;
47796;SDS011;33558;50.922;14.068;2022-07-06T13:57:57;3.95;;;0.95;;
47796;SDS011;33558;50.922;14.068;2022-07-06T14:00:24;1.45;;;0.77;;
47796;SDS011;33558;50.922;14.068;2022-07-06T14:02:51;1.52;;;0.80;;
47796;SDS011;33558;50.922;14.068;2022-07-06T14:05:18;4.50;;;1.30;;
47796;SDS011;33558;50.922;14.068;2022-07-06T14:07:44;2.40;;;1.00;;
47796;SDS011;33558;50.922;14.068;2022-07-06T14:10:11;2.08;;;0.90;;
47796;SDS011;33558;50.922;14.068;2022-07-06T14:12:39;1.67;;;0.95;;
47796;SDS011;33558;50.922;14.068;2022-07-06T14:15:30;2.00;;;0.80;;
47796;SDS011;33558;50.922;14.068;2022-07-06T14:17:57;4.03;;;1.02;;
47796;SDS011;33558;50.922;14.068;2022-07-06T14:20:24;2.50;;;0.90;;
47796;SDS011;33558;50.922;14.068;2022-07-06T14:22:50;3.70;;;0.90;;
47796;SDS011;33558;50.922;14.068;2022-07-06T14:25:17;2.47;;;1.02;;
47796;SDS011;33558;50.922;14.068;2022-07-06T14:27:45;2.92;;;1.08;;
47796;SDS011;33558;50.922;14.068;2022-07-06T14:30:12;3.08;;;0.82;;
47796;SDS011;33558;50.922;14.068;2022-07-06T14:32:39;3.80;;;1.10;;
47796;SDS011;33558;50.922;14.068;2022-07-06T14:35:07;4.47;;;1.13;;
47796;SDS011;33558;50.922;14.068;2022-07-06T14:37:34;4.00;;;1.02;;
47796;SDS011;33558;50.922;14.068;2022-07-06T14:40:00;2.67;;;0.70;;
47796;SDS011;33558;50.922;14.068;2022-07-06T14:42:27;1.30;;;0.85;;
47796;SDS011;33558;50.922;14.068;2022-07-06T14:45:21;5.43;;;0.95;;
47796;SDS011;33558;50.922;14.068;2022-07-06T14:47:48;3.53;;;0.93;;
47796;SDS011;33558;50.922;14.068;2022-07-06T14:50:14;2.60;;;0.98;;
47796;SDS011;33558;50.922;14.068;2022-07-06T14:52:41;2.63;;;1.08;;
47796;SDS011;33558;50.922;14.068;2022-07-06T14:55:08;3.22;;;0.77;;
47796;SDS011;33558;50.922;14.068;2022-07-06T14:57:35;2.53;;;0.90;;
47796;SDS011;33558;50.922;14.068;2022-07-06T15:00:28;2.45;;;1.00;;
47796;SDS011;33558;50.922;14.068;2022-07-06T15:02:55;1.67;;;0.75;;